sensor_id;sensor_type;location;lat;lon;timestamp;P1;durP1;ratioP1;P2;durP2;ratioP2
54953;SDS011;40855;51.072;5.402;2023-02-19T00:00:30;8.88;;;4.82;;
54953;SDS011;40855;51.072;5.402;2023-02-19T00:02:55;9.75;;;5.53;;
54953;SDS011;40855;51.072;5.402;2023-02-19T00:05:22;9.80;;;5.78;;
54953;SDS011;40855;51.072;5.402;2023-02-19T00:07:48;9.45;;;5.88;;
54953;SDS011;40855;51.072;5.402;2023-02-19T00:10:14;7.25;;;5.57;;
54953;SDS011;40855;51.072;5.402;2023-02-19T00:12:39;10.63;;;6.45;;
54953;SDS011;40855;51.072;5.402;2023-02-19T00:15:05;9.13;;;4.70;;
54953;SDS011;40855;51.072;5.402;2023-02-19T00:17:31;5.85;;;4.38;;
54953;SDS011;40855;51.072;5.402;2023-02-19T00:19:57;8.38;;;5.85;;
54953;SDS011;40855;51.072;5.402;2023-02-19T00:22:22;8.35;;;5.15;;
54953;SDS011;40855;51.072;5.402;2023-02-19T00:24:48;6.82;;;4.97;;
54953;SDS011;40855;51.072;5.402;2023-02-19T00:27:14;11.98;;;6.75;;
54953;SDS011;40855;51.072;5.402;2023-02-19T00:29:40;5.30;;;3.80;;
54953;SDS011;40855;51.072;5.402;2023-02-19T00:32:05;9.35;;;5.07;;
54953;SDS011;40855;51.072;5.402;2023-02-19T00:34:31;10.95;;;5.85;;
54953;SDS011;40855;51.072;5.402;2023-02-19T00:36:57;8.35;;;5.85;;
54953;SDS011;40855;51.072;5.402;2023-02-19T00:39:22;6.20;;;4.60;;
54953;SDS011;40855;51.072;5.402;2023-02-19T00:41:48;8.05;;;5.15;;
54953;SDS011;40855;51.072;5.402;2023-02-19T00:44:14;7.30;;;4.55;;
54953;SDS011;40855;51.072;5.402;2023-02-19T00:46:41;6.68;;;3.17;;
54953;SDS011;40855;51.072;5.402;2023-02-19T00:49:10;9.55;;;5.63;;
54953;SDS011;40855;51.072;5.402;2023-02-19T00:51:43;8.63;;;5.35;;
54953;SDS011;40855;51.072;5.402;2023-02-19T00:54:09;12.50;;;6.07;;
54953;SDS011;40855;51.072;5.402;2023-02-19T00:56:36;8.93;;;5.70;;
54953;SDS011;40855;51.072;5.402;2023-02-19T00:59:02;9.90;;;7.32;;
54953;SDS011;40855;51.072;5.402;2023-02-19T01:01:28;8.82;;;5.22;;
54953;SDS011;40855;51.072;5.402;2023-02-19T01:03:54;10.55;;;6.55;;
54953;SDS011;40855;51.072;5.402;2023-02-19T01:06:20;13.48;;;7.20;;
54953;SDS011;40855;51.072;5.402;2023-02-19T01:08:46;9.82;;;5.97;;
54953;SDS011;40855;51.072;5.402;2023-02-19T01:11:12;4.68;;;3.38;;
54953;SDS011;40855;51.072;5.402;2023-02-19T01:13:39;11.55;;;7.40;;
54953;SDS011;40855;51.072;5.402;2023-02-19T01:16:15;10.93;;;6.88;;
54953;SDS011;40855;51.072;5.402;2023-02-19T01:18:42;11.45;;;6.47;;
54953;SDS011;40855;51.072;5.402;2023-02-19T01:21:12;11.57;;;6.47;;
54953;SDS011;40855;51.072;5.402;2023-02-19T01:23:38;9.55;;;5.18;;
54953;SDS011;40855;51.072;5.402;2023-02-19T01:26:05;13.48;;;7.20;;
54953;SDS011;40855;51.072;5.402;2023-02-19T01:28:33;11.32;;;7.75;;
54953;SDS011;40855;51.072;5.402;2023-02-19T01:31:04;10.40;;;4.80;;
54953;SDS011;40855;51.072;5.402;2023-02-19T01:33:31;11.57;;;6.80;;
54953;SDS011;40855;51.072;5.402;2023-02-19T01:35:58;12.43;;;6.47;;
54953;SDS011;40855;51.072;5.402;2023-02-19T01:38:23;11.82;;;5.57;;
54953;SDS011;40855;51.072;5.402;2023-02-19T01:40:55;9.05;;;5.95;;
54953;SDS011;40855;51.072;5.402;2023-02-19T01:43:22;11.05;;;6.88;;
54953;SDS011;40855;51.072;5.402;2023-02-19T01:45:48;11.40;;;6.63;;
54953;SDS011;40855;51.072;5.402;2023-02-19T01:48:21;12.50;;;6.97;;
54953;SDS011;40855;51.072;5.402;2023-02-19T01:51:24;15.38;;;4.85;;
54953;SDS011;40855;51.072;5.402;2023-02-19T01:53:44;11.80;;;6.50;;
54953;SDS011;40855;51.072;5.402;2023-02-19T01:56:16;11.40;;;4.72;;
54953;SDS011;40855;51.072;5.402;2023-02-19T01:58:44;12.05;;;6.80;;
54953;SDS011;40855;51.072;5.402;2023-02-19T02:01:10;9.73;;;5.05;;
54953;SDS011;40855;51.072;5.402;2023-02-19T02:03:36;16.15;;;7.88;;
54953;SDS011;40855;51.072;5.402;2023-02-19T02:06:07;19.02;;;8.05;;
54953;SDS011;40855;51.072;5.402;2023-02-19T02:08:54;15.90;;;8.25;;
54953;SDS011;40855;51.072;5.402;2023-02-19T02:11:41;13.27;;;5.45;;
54953;SDS011;40855;51.072;5.402;2023-02-19T02:14:11;19.60;;;9.02;;
54953;SDS011;40855;51.072;5.402;2023-02-19T02:21:55;15.63;;;8.77;;
54953;SDS011;40855;51.072;5.402;2023-02-19T02:27:39;24.30;;;9.30;;
54953;SDS011;40855;51.072;5.402;2023-02-19T02:33:03;16.90;;;10.02;;
54953;SDS011;40855;51.072;5.402;2023-02-19T02:35:47;24.90;;;11.00;;
54953;SDS011;40855;51.072;5.402;2023-02-19T02:38:17;18.30;;;8.80;;
54953;SDS011;40855;51.072;5.402;2023-02-19T02:40:46;20.17;;;9.10;;
54953;SDS011;40855;51.072;5.402;2023-02-19T02:43:12;18.83;;;8.57;;
54953;SDS011;40855;51.072;5.402;2023-02-19T02:45:38;19.67;;;10.52;;
54953;SDS011;40855;51.072;5.402;2023-02-19T02:49:05;14.68;;;7.38;;
54953;SDS011;40855;51.072;5.402;2023-02-19T02:51:06;21.90;;;11.40;;
54953;SDS011;40855;51.072;5.402;2023-02-19T02:56:49;25.27;;;11.27;;
54953;SDS011;40855;51.072;5.402;2023-02-19T02:59:20;20.73;;;10.65;;
54953;SDS011;40855;51.072;5.402;2023-02-19T03:02:02;25.35;;;9.70;;
54953;SDS011;40855;51.072;5.402;2023-02-19T03:08:02;28.15;;;11.25;;
54953;SDS011;40855;51.072;5.402;2023-02-19T03:13:08;22.83;;;11.32;;
54953;SDS011;40855;51.072;5.402;2023-02-19T03:16:07;18.23;;;9.35;;
54953;SDS011;40855;51.072;5.402;2023-02-19T03:18:57;21.08;;;9.57;;
54953;SDS011;40855;51.072;5.402;2023-02-19T03:21:44;14.15;;;9.80;;
54953;SDS011;40855;51.072;5.402;2023-02-19T03:24:16;19.45;;;9.90;;
54953;SDS011;40855;51.072;5.402;2023-02-19T03:27:04;18.98;;;9.07;;
54953;SDS011;40855;51.072;5.402;2023-02-19T03:29:32;18.05;;;8.40;;
54953;SDS011;40855;51.072;5.402;2023-02-19T03:32:06;31.23;;;9.68;;
54953;SDS011;40855;51.072;5.402;2023-02-19T03:34:36;18.88;;;8.23;;
54953;SDS011;40855;51.072;5.402;2023-02-19T03:37:12;15.80;;;7.82;;
54953;SDS011;40855;51.072;5.402;2023-02-19T03:39:38;17.17;;;7.97;;
54953;SDS011;40855;51.072;5.402;2023-02-19T03:42:16;15.38;;;6.30;;
54953;SDS011;40855;51.072;5.402;2023-02-19T03:45:01;11.70;;;5.40;;
54953;SDS011;40855;51.072;5.402;2023-02-19T03:48:01;15.13;;;5.43;;
54953;SDS011;40855;51.072;5.402;2023-02-19T03:56:23;14.32;;;5.43;;
54953;SDS011;40855;51.072;5.402;2023-02-19T03:59:13;15.10;;;5.30;;
54953;SDS011;40855;51.072;5.402;2023-02-19T04:01:54;13.50;;;4.55;;
54953;SDS011;40855;51.072;5.402;2023-02-19T04:06:56;20.13;;;4.93;;
54953;SDS011;40855;51.072;5.402;2023-02-19T04:09:23;16.25;;;4.55;;
54953;SDS011;40855;51.072;5.402;2023-02-19T04:11:54;8.57;;;3.60;;
54953;SDS011;40855;51.072;5.402;2023-02-19T04:14:31;8.52;;;3.72;;
54953;SDS011;40855;51.072;5.402;2023-02-19T04:17:04;13.25;;;4.18;;
54953;SDS011;40855;51.072;5.402;2023-02-19T04:19:35;15.55;;;3.40;;
54953;SDS011;40855;51.072;5.402;2023-02-19T04:22:04;15.60;;;3.03;;
54953;SDS011;40855;51.072;5.402;2023-02-19T04:24:33;12.73;;;3.13;;
54953;SDS011;40855;51.072;5.402;2023-02-19T04:27:03;16.85;;;2.95;;
54953;SDS011;40855;51.072;5.402;2023-02-19T04:29:30;8.45;;;3.25;;
54953;SDS011;40855;51.072;5.402;2023-02-19T04:31:56;10.02;;;3.03;;
54953;SDS011;40855;51.072;5.402;2023-02-19T04:34:22;8.32;;;3.30;;
54953;SDS011;40855;51.072;5.402;2023-02-19T04:36:48;10.70;;;3.20;;
54953;SDS011;40855;51.072;5.402;2023-02-19T04:39:13;15.05;;;3.22;;
54953;SDS011;40855;51.072;5.402;2023-02-19T04:41:39;10.63;;;3.17;;
54953;SDS011;40855;51.072;5.402;2023-02-19T04:44:05;13.05;;;2.38;;
54953;SDS011;40855;51.072;5.402;2023-02-19T04:46:30;19.50;;;2.97;;
54953;SDS011;40855;51.072;5.402;2023-02-19T04:48:56;17.80;;;2.70;;
54953;SDS011;40855;51.072;5.402;2023-02-19T04:51:22;10.32;;;2.30;;
54953;SDS011;40855;51.072;5.402;2023-02-19T04:53:48;10.77;;;2.85;;
54953;SDS011;40855;51.072;5.402;2023-02-19T04:56:14;14.73;;;3.35;;
54953;SDS011;40855;51.072;5.402;2023-02-19T04:58:41;14.05;;;2.88;;
54953;SDS011;40855;51.072;5.402;2023-02-19T05:01:08;12.02;;;2.45;;
54953;SDS011;40855;51.072;5.402;2023-02-19T05:03:34;12.60;;;3.15;;
54953;SDS011;40855;51.072;5.402;2023-02-19T05:06:03;11.18;;;3.00;;
54953;SDS011;40855;51.072;5.402;2023-02-19T05:08:34;14.20;;;3.17;;
54953;SDS011;40855;51.072;5.402;2023-02-19T05:11:01;8.23;;;1.63;;
54953;SDS011;40855;51.072;5.402;2023-02-19T05:13:28;9.82;;;2.85;;
54953;SDS011;40855;51.072;5.402;2023-02-19T05:15:58;10.18;;;2.45;;
54953;SDS011;40855;51.072;5.402;2023-02-19T05:18:26;13.98;;;3.00;;
54953;SDS011;40855;51.072;5.402;2023-02-19T05:20:52;7.70;;;2.25;;
54953;SDS011;40855;51.072;5.402;2023-02-19T05:23:18;14.35;;;3.00;;
54953;SDS011;40855;51.072;5.402;2023-02-19T05:25:45;13.88;;;3.47;;
54953;SDS011;40855;51.072;5.402;2023-02-19T05:28:11;15.90;;;2.45;;
54953;SDS011;40855;51.072;5.402;2023-02-19T05:33:13;16.15;;;2.90;;
54953;SDS011;40855;51.072;5.402;2023-02-19T05:35:43;9.65;;;3.22;;
54953;SDS011;40855;51.072;5.402;2023-02-19T05:38:10;14.70;;;3.22;;
54953;SDS011;40855;51.072;5.402;2023-02-19T05:40:37;20.20;;;3.90;;
54953;SDS011;40855;51.072;5.402;2023-02-19T05:43:03;10.43;;;2.45;;
54953;SDS011;40855;51.072;5.402;2023-02-19T05:45:29;20.83;;;3.15;;
54953;SDS011;40855;51.072;5.402;2023-02-19T05:47:55;12.15;;;2.90;;
54953;SDS011;40855;51.072;5.402;2023-02-19T05:50:20;17.20;;;2.47;;
54953;SDS011;40855;51.072;5.402;2023-02-19T05:52:46;15.30;;;3.00;;
54953;SDS011;40855;51.072;5.402;2023-02-19T05:55:12;11.82;;;1.70;;
54953;SDS011;40855;51.072;5.402;2023-02-19T05:57:39;17.42;;;2.97;;
54953;SDS011;40855;51.072;5.402;2023-02-19T06:00:05;5.10;;;1.67;;
54953;SDS011;40855;51.072;5.402;2023-02-19T06:02:32;8.55;;;2.47;;
54953;SDS011;40855;51.072;5.402;2023-02-19T06:04:57;11.68;;;2.47;;
54953;SDS011;40855;51.072;5.402;2023-02-19T06:07:23;8.00;;;2.58;;
54953;SDS011;40855;51.072;5.402;2023-02-19T06:09:49;7.50;;;1.75;;
54953;SDS011;40855;51.072;5.402;2023-02-19T06:12:15;14.57;;;3.05;;
54953;SDS011;40855;51.072;5.402;2023-02-19T06:14:41;8.93;;;2.75;;
54953;SDS011;40855;51.072;5.402;2023-02-19T06:17:06;11.32;;;3.85;;
54953;SDS011;40855;51.072;5.402;2023-02-19T06:19:32;21.00;;;3.50;;
54953;SDS011;40855;51.072;5.402;2023-02-19T06:21:58;12.00;;;3.15;;
54953;SDS011;40855;51.072;5.402;2023-02-19T06:24:23;14.40;;;3.08;;
54953;SDS011;40855;51.072;5.402;2023-02-19T06:26:49;12.15;;;2.70;;
54953;SDS011;40855;51.072;5.402;2023-02-19T06:29:15;14.23;;;3.10;;
54953;SDS011;40855;51.072;5.402;2023-02-19T06:31:41;10.80;;;2.50;;
54953;SDS011;40855;51.072;5.402;2023-02-19T06:34:06;15.80;;;2.75;;
54953;SDS011;40855;51.072;5.402;2023-02-19T06:36:32;11.20;;;2.60;;
54953;SDS011;40855;51.072;5.402;2023-02-19T06:38:58;19.73;;;2.63;;
54953;SDS011;40855;51.072;5.402;2023-02-19T06:41:24;16.67;;;3.50;;
54953;SDS011;40855;51.072;5.402;2023-02-19T06:43:50;7.15;;;2.08;;
54953;SDS011;40855;51.072;5.402;2023-02-19T06:46:16;10.23;;;2.58;;
54953;SDS011;40855;51.072;5.402;2023-02-19T06:48:42;18.63;;;3.28;;
54953;SDS011;40855;51.072;5.402;2023-02-19T06:51:12;10.65;;;2.70;;
54953;SDS011;40855;51.072;5.402;2023-02-19T06:53:40;17.30;;;2.65;;
54953;SDS011;40855;51.072;5.402;2023-02-19T06:56:06;10.00;;;2.40;;
54953;SDS011;40855;51.072;5.402;2023-02-19T06:58:46;9.63;;;2.60;;
54953;SDS011;40855;51.072;5.402;2023-02-19T07:01:12;10.35;;;2.42;;
54953;SDS011;40855;51.072;5.402;2023-02-19T07:03:38;10.13;;;2.10;;
54953;SDS011;40855;51.072;5.402;2023-02-19T07:06:04;16.10;;;3.10;;
54953;SDS011;40855;51.072;5.402;2023-02-19T07:08:30;21.27;;;2.90;;
54953;SDS011;40855;51.072;5.402;2023-02-19T07:10:56;15.10;;;3.20;;
54953;SDS011;40855;51.072;5.402;2023-02-19T07:13:22;14.18;;;2.85;;
54953;SDS011;40855;51.072;5.402;2023-02-19T07:15:50;19.48;;;3.55;;
54953;SDS011;40855;51.072;5.402;2023-02-19T07:18:16;17.15;;;2.55;;
54953;SDS011;40855;51.072;5.402;2023-02-19T07:20:42;12.68;;;3.05;;
54953;SDS011;40855;51.072;5.402;2023-02-19T07:23:08;14.98;;;2.45;;
54953;SDS011;40855;51.072;5.402;2023-02-19T07:25:34;16.25;;;2.70;;
54953;SDS011;40855;51.072;5.402;2023-02-19T07:28:02;9.70;;;2.08;;
54953;SDS011;40855;51.072;5.402;2023-02-19T07:30:27;18.27;;;3.42;;
54953;SDS011;40855;51.072;5.402;2023-02-19T07:32:53;12.75;;;3.03;;
54953;SDS011;40855;51.072;5.402;2023-02-19T07:35:19;17.27;;;2.90;;
54953;SDS011;40855;51.072;5.402;2023-02-19T07:37:44;22.60;;;3.20;;
54953;SDS011;40855;51.072;5.402;2023-02-19T07:40:10;16.30;;;2.80;;
54953;SDS011;40855;51.072;5.402;2023-02-19T07:42:36;17.15;;;2.65;;
54953;SDS011;40855;51.072;5.402;2023-02-19T07:45:02;16.23;;;2.70;;
54953;SDS011;40855;51.072;5.402;2023-02-19T07:47:28;19.38;;;4.22;;
54953;SDS011;40855;51.072;5.402;2023-02-19T07:49:54;13.15;;;2.53;;
54953;SDS011;40855;51.072;5.402;2023-02-19T07:52:19;21.48;;;3.67;;
54953;SDS011;40855;51.072;5.402;2023-02-19T07:54:45;14.88;;;3.38;;
54953;SDS011;40855;51.072;5.402;2023-02-19T07:57:11;11.65;;;3.08;;
54953;SDS011;40855;51.072;5.402;2023-02-19T07:59:37;14.23;;;4.10;;
54953;SDS011;40855;51.072;5.402;2023-02-19T08:02:02;14.32;;;3.80;;
54953;SDS011;40855;51.072;5.402;2023-02-19T08:05:07;21.38;;;3.50;;
54953;SDS011;40855;51.072;5.402;2023-02-19T08:07:33;11.30;;;3.08;;
54953;SDS011;40855;51.072;5.402;2023-02-19T08:09:59;13.90;;;3.45;;
54953;SDS011;40855;51.072;5.402;2023-02-19T08:12:44;12.47;;;3.60;;
54953;SDS011;40855;51.072;5.402;2023-02-19T08:15:29;11.40;;;3.25;;
54953;SDS011;40855;51.072;5.402;2023-02-19T08:17:56;16.20;;;3.80;;
54953;SDS011;40855;51.072;5.402;2023-02-19T08:20:22;12.25;;;3.88;;
54953;SDS011;40855;51.072;5.402;2023-02-19T08:22:48;20.83;;;4.20;;
54953;SDS011;40855;51.072;5.402;2023-02-19T08:25:14;15.32;;;3.53;;
54953;SDS011;40855;51.072;5.402;2023-02-19T08:27:39;13.23;;;3.50;;
54953;SDS011;40855;51.072;5.402;2023-02-19T08:30:05;19.10;;;4.45;;
54953;SDS011;40855;51.072;5.402;2023-02-19T08:32:32;12.18;;;1.95;;
54953;SDS011;40855;51.072;5.402;2023-02-19T08:34:58;17.33;;;4.10;;
54953;SDS011;40855;51.072;5.402;2023-02-19T08:37:24;18.02;;;3.30;;
54953;SDS011;40855;51.072;5.402;2023-02-19T08:39:49;15.10;;;3.80;;
54953;SDS011;40855;51.072;5.402;2023-02-19T08:42:15;20.40;;;3.40;;
54953;SDS011;40855;51.072;5.402;2023-02-19T08:44:41;13.48;;;3.60;;
54953;SDS011;40855;51.072;5.402;2023-02-19T08:47:06;11.57;;;3.70;;
54953;SDS011;40855;51.072;5.402;2023-02-19T08:49:32;15.40;;;4.22;;
54953;SDS011;40855;51.072;5.402;2023-02-19T08:51:58;11.88;;;3.10;;
54953;SDS011;40855;51.072;5.402;2023-02-19T08:54:23;16.70;;;3.30;;
54953;SDS011;40855;51.072;5.402;2023-02-19T08:56:49;13.30;;;3.58;;
54953;SDS011;40855;51.072;5.402;2023-02-19T08:59:15;11.02;;;3.05;;
54953;SDS011;40855;51.072;5.402;2023-02-19T09:01:41;14.50;;;3.47;;
54953;SDS011;40855;51.072;5.402;2023-02-19T09:04:08;16.90;;;3.17;;
54953;SDS011;40855;51.072;5.402;2023-02-19T09:06:36;15.65;;;3.90;;
54953;SDS011;40855;51.072;5.402;2023-02-19T09:09:01;15.98;;;3.38;;
54953;SDS011;40855;51.072;5.402;2023-02-19T09:11:27;12.98;;;3.50;;
54953;SDS011;40855;51.072;5.402;2023-02-19T09:13:54;21.33;;;3.80;;
54953;SDS011;40855;51.072;5.402;2023-02-19T09:16:20;13.63;;;3.75;;
54953;SDS011;40855;51.072;5.402;2023-02-19T09:18:46;10.02;;;3.10;;
54953;SDS011;40855;51.072;5.402;2023-02-19T09:21:12;13.57;;;3.05;;
54953;SDS011;40855;51.072;5.402;2023-02-19T09:23:38;14.48;;;3.55;;
54953;SDS011;40855;51.072;5.402;2023-02-19T09:26:04;13.98;;;2.78;;
54953;SDS011;40855;51.072;5.402;2023-02-19T09:28:34;12.30;;;3.55;;
54953;SDS011;40855;51.072;5.402;2023-02-19T09:31:07;11.82;;;2.95;;
54953;SDS011;40855;51.072;5.402;2023-02-19T09:33:35;12.80;;;4.38;;
54953;SDS011;40855;51.072;5.402;2023-02-19T09:36:01;15.13;;;3.97;;
54953;SDS011;40855;51.072;5.402;2023-02-19T09:38:27;19.70;;;4.72;;
54953;SDS011;40855;51.072;5.402;2023-02-19T09:40:58;16.35;;;4.00;;
54953;SDS011;40855;51.072;5.402;2023-02-19T09:43:30;15.85;;;4.22;;
54953;SDS011;40855;51.072;5.402;2023-02-19T09:49:04;14.52;;;3.83;;
54953;SDS011;40855;51.072;5.402;2023-02-19T09:51:40;20.88;;;5.47;;
54953;SDS011;40855;51.072;5.402;2023-02-19T09:54:14;19.02;;;4.40;;
54953;SDS011;40855;51.072;5.402;2023-02-19T09:56:55;20.48;;;5.15;;
54953;SDS011;40855;51.072;5.402;2023-02-19T09:59:25;14.98;;;5.35;;
54953;SDS011;40855;51.072;5.402;2023-02-19T10:02:04;13.00;;;4.78;;
54953;SDS011;40855;51.072;5.402;2023-02-19T10:04:37;10.20;;;3.95;;
54953;SDS011;40855;51.072;5.402;2023-02-19T10:07:09;11.25;;;4.15;;
54953;SDS011;40855;51.072;5.402;2023-02-19T10:09:39;13.25;;;3.53;;
54953;SDS011;40855;51.072;5.402;2023-02-19T10:12:15;6.30;;;3.22;;
54953;SDS011;40855;51.072;5.402;2023-02-19T10:14:49;13.25;;;3.95;;
54953;SDS011;40855;51.072;5.402;2023-02-19T10:17:24;14.68;;;5.00;;
54953;SDS011;40855;51.072;5.402;2023-02-19T10:19:55;13.27;;;4.60;;
54953;SDS011;40855;51.072;5.402;2023-02-19T10:22:21;13.75;;;5.22;;
54953;SDS011;40855;51.072;5.402;2023-02-19T10:24:49;10.45;;;5.28;;
54953;SDS011;40855;51.072;5.402;2023-02-19T10:27:18;15.63;;;5.20;;
54953;SDS011;40855;51.072;5.402;2023-02-19T10:29:45;12.07;;;5.35;;
54953;SDS011;40855;51.072;5.402;2023-02-19T10:32:16;16.17;;;6.03;;
54953;SDS011;40855;51.072;5.402;2023-02-19T10:34:45;15.70;;;6.72;;
54953;SDS011;40855;51.072;5.402;2023-02-19T10:37:15;14.30;;;6.63;;
54953;SDS011;40855;51.072;5.402;2023-02-19T10:39:46;14.38;;;6.60;;
54953;SDS011;40855;51.072;5.402;2023-02-19T10:42:15;18.20;;;6.85;;
54953;SDS011;40855;51.072;5.402;2023-02-19T10:44:44;15.50;;;6.18;;
54953;SDS011;40855;51.072;5.402;2023-02-19T10:47:14;20.55;;;7.22;;
54953;SDS011;40855;51.072;5.402;2023-02-19T10:49:43;22.10;;;6.88;;
54953;SDS011;40855;51.072;5.402;2023-02-19T10:52:31;19.60;;;7.22;;
54953;SDS011;40855;51.072;5.402;2023-02-19T10:57:46;15.13;;;5.82;;
54953;SDS011;40855;51.072;5.402;2023-02-19T11:02:42;14.07;;;6.07;;
54953;SDS011;40855;51.072;5.402;2023-02-19T11:10:18;7.07;;;3.45;;
54953;SDS011;40855;51.072;5.402;2023-02-19T11:12:48;8.05;;;3.55;;
54953;SDS011;40855;51.072;5.402;2023-02-19T11:15:20;9.90;;;5.05;;
54953;SDS011;40855;51.072;5.402;2023-02-19T11:17:53;10.60;;;5.53;;
54953;SDS011;40855;51.072;5.402;2023-02-19T11:20:49;13.18;;;6.03;;
54953;SDS011;40855;51.072;5.402;2023-02-19T11:23:30;10.45;;;6.13;;
54953;SDS011;40855;51.072;5.402;2023-02-19T11:26:02;15.63;;;7.45;;
54953;SDS011;40855;51.072;5.402;2023-02-19T11:31:13;13.82;;;6.82;;
54953;SDS011;40855;51.072;5.402;2023-02-19T11:38:50;18.92;;;7.70;;
54953;SDS011;40855;51.072;5.402;2023-02-19T11:44:01;17.02;;;8.20;;
54953;SDS011;40855;51.072;5.402;2023-02-19T11:55:03;16.20;;;8.85;;
54953;SDS011;40855;51.072;5.402;2023-02-19T11:57:42;22.88;;;11.43;;
54953;SDS011;40855;51.072;5.402;2023-02-19T12:06:11;20.52;;;9.90;;
54953;SDS011;40855;51.072;5.402;2023-02-19T12:16:37;15.70;;;7.15;;
54953;SDS011;40855;51.072;5.402;2023-02-19T12:44:00;18.40;;;6.10;;
54953;SDS011;40855;51.072;5.402;2023-02-19T12:46:52;14.63;;;5.15;;
54953;SDS011;40855;51.072;5.402;2023-02-19T12:49:24;20.38;;;5.82;;
54953;SDS011;40855;51.072;5.402;2023-02-19T12:54:46;15.30;;;5.57;;
54953;SDS011;40855;51.072;5.402;2023-02-19T12:57:49;16.45;;;5.47;;
54953;SDS011;40855;51.072;5.402;2023-02-19T13:02:52;11.77;;;4.65;;
54953;SDS011;40855;51.072;5.402;2023-02-19T13:08:51;20.17;;;6.10;;
54953;SDS011;40855;51.072;5.402;2023-02-19T13:10:58;17.13;;;5.93;;
54953;SDS011;40855;51.072;5.402;2023-02-19T13:16:04;16.40;;;6.35;;
54953;SDS011;40855;51.072;5.402;2023-02-19T13:21:12;12.80;;;5.63;;
54953;SDS011;40855;51.072;5.402;2023-02-19T13:24:07;8.55;;;5.45;;
54953;SDS011;40855;51.072;5.402;2023-02-19T13:38:30;17.88;;;8.52;;
54953;SDS011;40855;51.072;5.402;2023-02-19T13:40:58;20.40;;;9.05;;
54953;SDS011;40855;51.072;5.402;2023-02-19T13:43:26;21.10;;;9.43;;
54953;SDS011;40855;51.072;5.402;2023-02-19T13:45:58;27.60;;;10.52;;
54953;SDS011;40855;51.072;5.402;2023-02-19T13:48:30;19.90;;;9.50;;
54953;SDS011;40855;51.072;5.402;2023-02-19T13:58:59;17.05;;;8.55;;
54953;SDS011;40855;51.072;5.402;2023-02-19T14:14:54;16.98;;;10.57;;
54953;SDS011;40855;51.072;5.402;2023-02-19T14:27:52;5.93;;;4.55;;
54953;SDS011;40855;51.072;5.402;2023-02-19T14:30:26;6.55;;;5.93;;
54953;SDS011;40855;51.072;5.402;2023-02-19T14:32:53;6.15;;;5.03;;
54953;SDS011;40855;51.072;5.402;2023-02-19T14:35:20;5.28;;;2.70;;
54953;SDS011;40855;51.072;5.402;2023-02-19T14:37:49;7.25;;;4.80;;
54953;SDS011;40855;51.072;5.402;2023-02-19T14:40:31;6.03;;;4.43;;
54953;SDS011;40855;51.072;5.402;2023-02-19T14:43:01;7.35;;;5.40;;
54953;SDS011;40855;51.072;5.402;2023-02-19T14:45:38;5.38;;;3.70;;
54953;SDS011;40855;51.072;5.402;2023-02-19T14:48:11;4.65;;;3.15;;
54953;SDS011;40855;51.072;5.402;2023-02-19T14:50:46;4.60;;;3.25;;
54953;SDS011;40855;51.072;5.402;2023-02-19T14:53:15;14.02;;;5.53;;
54953;SDS011;40855;51.072;5.402;2023-02-19T14:55:43;9.18;;;5.72;;
54953;SDS011;40855;51.072;5.402;2023-02-19T14:58:30;9.00;;;6.72;;
54953;SDS011;40855;51.072;5.402;2023-02-19T15:00:57;7.28;;;4.45;;
54953;SDS011;40855;51.072;5.402;2023-02-19T15:05:57;5.97;;;4.82;;
54953;SDS011;40855;51.072;5.402;2023-02-19T15:08:32;7.30;;;4.78;;
54953;SDS011;40855;51.072;5.402;2023-02-19T15:11:07;10.27;;;4.70;;
54953;SDS011;40855;51.072;5.402;2023-02-19T15:13:35;6.38;;;4.82;;
54953;SDS011;40855;51.072;5.402;2023-02-19T15:16:01;5.72;;;5.13;;
54953;SDS011;40855;51.072;5.402;2023-02-19T15:18:27;5.95;;;3.75;;
54953;SDS011;40855;51.072;5.402;2023-02-19T15:20:58;5.50;;;4.28;;
54953;SDS011;40855;51.072;5.402;2023-02-19T15:23:26;3.83;;;3.53;;
54953;SDS011;40855;51.072;5.402;2023-02-19T15:25:54;3.25;;;2.38;;
54953;SDS011;40855;51.072;5.402;2023-02-19T15:33:22;5.13;;;2.00;;
54953;SDS011;40855;51.072;5.402;2023-02-19T15:35:49;5.22;;;2.28;;
54953;SDS011;40855;51.072;5.402;2023-02-19T15:38:18;4.55;;;2.75;;
54953;SDS011;40855;51.072;5.402;2023-02-19T15:40:44;3.72;;;2.80;;
54953;SDS011;40855;51.072;5.402;2023-02-19T15:43:27;5.25;;;2.60;;
54953;SDS011;40855;51.072;5.402;2023-02-19T15:45:59;3.80;;;2.50;;
54953;SDS011;40855;51.072;5.402;2023-02-19T15:48:39;4.10;;;2.60;;
54953;SDS011;40855;51.072;5.402;2023-02-19T15:51:12;4.60;;;2.55;;
54953;SDS011;40855;51.072;5.402;2023-02-19T15:53:43;4.90;;;3.70;;
54953;SDS011;40855;51.072;5.402;2023-02-19T15:59:01;5.68;;;2.80;;
54953;SDS011;40855;51.072;5.402;2023-02-19T16:01:48;5.15;;;2.58;;
54953;SDS011;40855;51.072;5.402;2023-02-19T16:04:15;4.68;;;2.83;;
54953;SDS011;40855;51.072;5.402;2023-02-19T16:06:53;5.38;;;2.50;;
54953;SDS011;40855;51.072;5.402;2023-02-19T16:09:20;1.60;;;1.05;;
54953;SDS011;40855;51.072;5.402;2023-02-19T16:11:52;8.25;;;2.45;;
54953;SDS011;40855;51.072;5.402;2023-02-19T16:17:34;6.75;;;2.60;;
54953;SDS011;40855;51.072;5.402;2023-02-19T16:19:49;5.05;;;2.35;;
54953;SDS011;40855;51.072;5.402;2023-02-19T16:22:17;6.38;;;2.35;;
54953;SDS011;40855;51.072;5.402;2023-02-19T16:24:46;3.03;;;2.72;;
54953;SDS011;40855;51.072;5.402;2023-02-19T16:27:32;4.40;;;2.85;;
54953;SDS011;40855;51.072;5.402;2023-02-19T16:30:09;4.00;;;3.08;;
54953;SDS011;40855;51.072;5.402;2023-02-19T16:33:18;5.85;;;3.60;;
54953;SDS011;40855;51.072;5.402;2023-02-19T16:35:44;4.33;;;2.70;;
54953;SDS011;40855;51.072;5.402;2023-02-19T16:38:15;3.50;;;3.15;;
54953;SDS011;40855;51.072;5.402;2023-02-19T16:43:38;1.67;;;1.58;;
54953;SDS011;40855;51.072;5.402;2023-02-19T16:46:06;4.18;;;2.90;;
54953;SDS011;40855;51.072;5.402;2023-02-19T16:48:34;3.53;;;2.70;;
54953;SDS011;40855;51.072;5.402;2023-02-19T16:51:00;2.92;;;2.72;;
54953;SDS011;40855;51.072;5.402;2023-02-19T16:53:27;3.42;;;2.30;;
54953;SDS011;40855;51.072;5.402;2023-02-19T16:55:53;2.33;;;2.13;;
54953;SDS011;40855;51.072;5.402;2023-02-19T16:58:19;5.60;;;3.10;;
54953;SDS011;40855;51.072;5.402;2023-02-19T17:00:45;4.35;;;2.65;;
54953;SDS011;40855;51.072;5.402;2023-02-19T17:03:12;5.72;;;2.88;;
54953;SDS011;40855;51.072;5.402;2023-02-19T17:05:40;2.13;;;2.03;;
54953;SDS011;40855;51.072;5.402;2023-02-19T17:10:55;4.70;;;3.47;;
54953;SDS011;40855;51.072;5.402;2023-02-19T17:13:22;4.30;;;3.38;;
54953;SDS011;40855;51.072;5.402;2023-02-19T17:15:47;4.43;;;3.70;;
54953;SDS011;40855;51.072;5.402;2023-02-19T17:18:13;5.55;;;3.47;;
54953;SDS011;40855;51.072;5.402;2023-02-19T17:20:39;3.95;;;3.38;;
54953;SDS011;40855;51.072;5.402;2023-02-19T17:23:07;3.65;;;3.17;;
54953;SDS011;40855;51.072;5.402;2023-02-19T17:25:33;4.90;;;3.33;;
54953;SDS011;40855;51.072;5.402;2023-02-19T17:27:59;4.00;;;2.72;;
54953;SDS011;40855;51.072;5.402;2023-02-19T17:30:26;3.78;;;2.65;;
54953;SDS011;40855;51.072;5.402;2023-02-19T17:32:53;4.32;;;2.88;;
54953;SDS011;40855;51.072;5.402;2023-02-19T17:35:19;5.25;;;2.17;;
54953;SDS011;40855;51.072;5.402;2023-02-19T17:37:45;5.30;;;2.63;;
54953;SDS011;40855;51.072;5.402;2023-02-19T17:40:24;2.80;;;2.30;;
54953;SDS011;40855;51.072;5.402;2023-02-19T17:42:52;4.15;;;2.30;;
54953;SDS011;40855;51.072;5.402;2023-02-19T17:45:17;3.08;;;2.38;;
54953;SDS011;40855;51.072;5.402;2023-02-19T17:47:43;3.08;;;1.63;;
54953;SDS011;40855;51.072;5.402;2023-02-19T17:50:13;6.13;;;2.30;;
54953;SDS011;40855;51.072;5.402;2023-02-19T17:52:41;5.35;;;2.10;;